Time;durP1;ratioP1;P1;durP2;ratioP2;P2;SDS_P1;SDS_P2;PMS_P1;PMS_P2;Temp;Humidity;BMP_temperature;BMP_pressure;BME280_temperature;BME280_humidity;BME280_pressure;Samples;Min_cycle;Max_cycle;Signal;HPM_P1;HPM_P2
2022/03/11 00:00:04;;;;;;;13.48;9.70;;;5.40;60.10;;;;;;5053958;28;20207;-66
2022/03/11 00:02:31;;;;;;;13.32;9.63;;;5.30;60.40;;;;;;5053479;28;20492;-67
2022/03/11 00:04:59;;;;;;;11.15;8.73;;;5.30;60.80;;;;;;5053554;28;20223;-67
2022/03/11 00:07:25;;;;;;;13.32;9.70;;;5.20;61.20;;;;;;5053547;28;20294;-67
2022/03/11 00:09:52;;;;;;;11.05;9.10;;;5.20;61.70;;;;;;5053773;28;20225;-66
2022/03/11 00:12:19;;;;;;;13.02;9.55;;;5.20;62.00;;;;;;5053431;28;20238;-68
2022/03/11 00:14:46;;;;;;;16.25;10.13;;;5.10;62.40;;;;;;5053233;28;20582;-66
2022/03/11 00:17:14;;;;;;;13.75;10.40;;;5.10;62.80;;;;;;5053253;28;20210;-67
2022/03/11 00:19:41;;;;;;;16.20;11.48;;;5.10;63.10;;;;;;5053496;28;20200;-67
2022/03/11 00:22:08;;;;;;;16.52;11.15;;;5.10;63.40;;;;;;5053396;28;20763;-67
2022/03/11 00:24:34;;;;;;;16.88;11.25;;;5.10;63.80;;;;;;5053110;28;20298;-65
2022/03/11 00:27:01;;;;;;;15.15;11.68;;;5.10;64.20;;;;;;5053196;28;20206;-67
2022/03/11 00:29:28;;;;;;;16.08;11.25;;;5.10;64.40;;;;;;5053097;28;20229;-66
2022/03/11 00:31:55;;;;;;;14.43;11.30;;;5.10;64.90;;;;;;5052631;28;20666;-66
2022/03/11 00:34:23;;;;;;;16.80;11.95;;;5.00;65.40;;;;;;5053126;28;20207;-67
2022/03/11 00:36:50;;;;;;;16.85;12.40;;;5.00;65.80;;;;;;5052829;28;20227;-66
2022/03/11 00:39:17;;;;;;;15.10;11.77;;;5.00;66.10;;;;;;5053211;28;20231;-67
2022/03/11 00:41:43;;;;;;;16.60;12.32;;;5.00;66.50;;;;;;5052986;28;20290;-66
2022/03/11 00:44:10;;;;;;;15.25;12.38;;;4.90;66.80;;;;;;5052740;28;20319;-66
2022/03/11 00:46:37;;;;;;;18.30;12.95;;;4.90;67.30;;;;;;5052672;28;20237;-66
2022/03/11 00:49:04;;;;;;;18.50;12.40;;;4.90;67.60;;;;;;5052916;28;20629;-66
2022/03/11 00:51:32;;;;;;;19.55;13.18;;;4.80;67.90;;;;;;5052824;28;20217;-66
2022/03/11 00:53:59;;;;;;;21.38;14.15;;;4.90;68.30;;;;;;5052818;28;20226;-67
2022/03/11 00:56:27;;;;;;;17.17;12.93;;;4.90;68.80;;;;;;5052866;28;20231;-66
2022/03/11 00:58:54;;;;;;;18.52;13.10;;;4.80;69.00;;;;;;5052418;28;20211;-66
2022/03/11 01:01:20;;;;;;;19.35;13.57;;;4.80;69.30;;;;;;5052902;28;20290;-67
2022/03/11 01:03:47;;;;;;;21.13;14.23;;;4.80;69.90;;;;;;5052517;28;20298;-67
2022/03/11 01:06:14;;;;;;;19.58;14.07;;;4.80;70.30;;;;;;5052569;28;20563;-66
2022/03/11 01:08:42;;;;;;;18.88;14.20;;;4.70;70.90;;;;;;5052413;28;20313;-66
2022/03/11 01:11:11;;;;;;;20.88;15.25;;;4.70;71.30;;;;;;5052695;28;20578;-66
2022/03/11 01:13:38;;;;;;;19.20;14.10;;;4.70;71.70;;;;;;5052136;28;20210;-66
2022/03/11 01:16:06;;;;;;;20.08;14.40;;;4.70;72.10;;;;;;5052673;28;20227;-66
2022/03/11 01:18:34;;;;;;;19.08;14.35;;;4.60;72.40;;;;;;5052224;28;20196;-67
2022/03/11 01:21:00;;;;;;;18.27;13.77;;;4.60;72.70;;;;;;5052649;28;20225;-66
2022/03/11 01:23:27;;;;;;;18.40;13.70;;;4.60;73.00;;;;;;5052211;28;20210;-66
2022/03/11 01:25:55;;;;;;;22.60;15.20;;;4.60;73.20;;;;;;5052153;28;20315;-66
2022/03/11 01:28:22;;;;;;;20.05;14.80;;;4.60;73.50;;;;;;5052336;28;20220;-65
2022/03/11 01:30:49;;;;;;;20.33;15.30;;;4.50;73.70;;;;;;5052510;28;20661;-66
2022/03/11 01:33:16;;;;;;;26.83;15.50;;;4.50;74.00;;;;;;5052153;28;20285;-66
2022/03/11 01:35:43;;;;;;;20.50;15.18;;;4.40;74.30;;;;;;5051215;28;20226;-67
2022/03/11 01:38:09;;;;;;;21.60;15.70;;;4.40;74.80;;;;;;5052290;28;20218;-67
2022/03/11 01:40:36;;;;;;;22.08;15.40;;;4.40;75.20;;;;;;5052256;28;20214;-68
2022/03/11 01:43:05;;;;;;;21.80;15.05;;;4.30;75.40;;;;;;5052095;28;20298;-67
2022/03/11 01:45:32;;;;;;;22.52;16.60;;;4.40;75.80;;;;;;5056505;28;20309;-66
2022/03/11 01:47:59;;;;;;;21.48;15.38;;;4.40;76.30;;;;;;5056101;28;20735;-67
2022/03/11 01:50:25;;;;;;;23.20;15.48;;;4.40;76.50;;;;;;5056648;28;20667;-66
2022/03/11 01:52:52;;;;;;;21.52;15.80;;;4.40;76.70;;;;;;5056082;28;20209;-67
2022/03/11 01:55:19;;;;;;;24.73;16.60;;;4.30;77.30;;;;;;5055657;28;20239;-67
2022/03/11 01:57:46;;;;;;;23.73;15.98;;;4.20;77.80;;;;;;5056154;28;20298;-66
2022/03/11 02:00:17;;;;;;;21.13;15.48;;;4.20;78.20;;;;;;5056394;28;20207;-66
2022/03/11 02:02:44;;;;;;;26.63;16.73;;;4.20;78.90;;;;;;5055872;28;20203;-66
2022/03/11 02:05:14;;;;;;;29.15;16.85;;;4.10;79.10;;;;;;5056821;28;20234;-67
2022/03/11 02:07:42;;;;;;;26.27;17.40;;;4.10;79.40;;;;;;5057135;28;20568;-67
2022/03/11 02:10:10;;;;;;;22.80;16.60;;;4.10;79.40;;;;;;5056914;28;20234;-67
2022/03/11 02:12:37;;;;;;;27.02;18.08;;;4.10;79.80;;;;;;5057302;28;20218;-66
2022/03/11 02:15:06;;;;;;;30.17;18.23;;;4.10;79.80;;;;;;5056662;28;20231;-67
2022/03/11 02:17:34;;;;;;;24.67;17.75;;;4.10;80.00;;;;;;5056953;28;20207;-67
2022/03/11 02:20:01;;;;;;;31.10;17.63;;;4.10;80.20;;;;;;5056781;28;20286;-68
2022/03/11 02:22:30;;;;;;;23.88;18.45;;;4.10;80.40;;;;;;5056716;28;20663;-67
2022/03/11 02:24:58;;;;;;;26.60;17.70;;;4.00;80.60;;;;;;5056222;28;20228;-66
2022/03/11 02:27:25;;;;;;;23.45;17.15;;;4.00;81.20;;;;;;5057038;28;20204;-67
2022/03/11 02:29:52;;;;;;;27.20;17.60;;;4.00;81.50;;;;;;5056618;28;20710;-67
2022/03/11 02:32:19;;;;;;;25.48;18.75;;;4.00;81.70;;;;;;5056560;28;20204;-67
2022/03/11 02:34:46;;;;;;;27.75;18.40;;;4.00;81.90;;;;;;5056074;28;20205;-66
2022/03/11 02:37:12;;;;;;;25.13;18.15;;;4.00;82.30;;;;;;5056471;28;20229;-66
2022/03/11 02:39:39;;;;;;;26.70;17.45;;;3.90;82.50;;;;;;5056405;28;20195;-67
2022/03/11 02:42:08;;;;;;;28.30;18.75;;;3.90;82.70;;;;;;5056944;28;20298;-67
2022/03/11 02:44:34;;;;;;;25.33;17.83;;;3.90;82.80;;;;;;5056189;28;20205;-67
2022/03/11 02:47:01;;;;;;;24.83;17.38;;;4.00;83.00;;;;;;5056103;28;20199;-67
2022/03/11 02:49:28;;;;;;;30.13;18.15;;;4.00;83.10;;;;;;5056118;28;20245;-67
2022/03/11 02:51:56;;;;;;;28.45;18.05;;;3.90;83.30;;;;;;5056306;28;20207;-67
2022/03/11 02:54:23;;;;;;;25.70;17.58;;;3.90;83.40;;;;;;5055949;28;20237;-67
2022/03/11 02:56:50;;;;;;;24.83;17.38;;;3.90;84.30;;;;;;5055558;28;20223;-67
2022/03/11 02:59:19;;;;;;;24.55;17.40;;;3.90;83.70;;;;;;5056034;28;20219;-67
2022/03/11 03:01:45;;;;;;;29.35;18.50;;;4.00;84.00;;;;;;5056018;28;20203;-67
2022/03/11 03:04:13;;;;;;;27.48;18.15;;;4.00;83.90;;;;;;5055850;28;20294;-67
2022/03/11 03:06:40;;;;;;;27.13;17.13;;;4.00;83.60;;;;;;5055929;28;20558;-67
2022/03/11 03:09:07;;;;;;;29.10;19.75;;;4.00;83.50;;;;;;5055935;28;20298;-66
2022/03/11 03:11:34;;;;;;;25.40;17.77;;;4.00;83.80;;;;;;5055842;28;20294;-67
2022/03/11 03:14:01;;;;;;;27.50;18.90;;;3.90;84.10;;;;;;5055517;28;20295;-67
2022/03/11 03:16:29;;;;;;;29.35;20.10;;;3.80;84.20;;;;;;5055345;28;20732;-67
2022/03/11 03:18:56;;;;;;;28.88;18.73;;;3.80;84.90;;;;;;5055649;28;20233;-66
2022/03/11 03:21:25;;;;;;;29.65;19.48;;;3.80;85.10;;;;;;5055640;28;20579;-67
2022/03/11 03:23:52;;;;;;;30.77;20.20;;;3.70;85.50;;;;;;5055478;28;20207;-67
2022/03/11 03:26:20;;;;;;;30.02;18.67;;;3.80;85.30;;;;;;5055469;28;20323;-67
2022/03/11 03:28:47;;;;;;;30.33;20.77;;;3.80;85.20;;;;;;5055528;28;20206;-67
2022/03/11 03:31:16;;;;;;;33.00;21.58;;;3.70;85.60;;;;;;5055413;28;20214;-66
2022/03/11 03:33:44;;;;;;;28.15;18.70;;;3.60;86.10;;;;;;5055394;28;20204;-67
2022/03/11 03:36:11;;;;;;;27.33;20.27;;;3.60;86.60;;;;;;5055404;28;20220;-66
2022/03/11 03:38:38;;;;;;;25.65;19.70;;;3.50;86.30;;;;;;5055189;28;20249;-67
2022/03/11 03:41:05;;;;;;;33.40;20.58;;;3.50;86.50;;;;;;5055228;28;20234;-67
2022/03/11 03:43:32;;;;;;;34.15;21.65;;;3.40;86.70;;;;;;5055026;28;20206;-66
2022/03/11 03:45:59;;;;;;;30.88;21.23;;;3.50;87.00;;;;;;5055191;28;20319;-67
2022/03/11 03:48:26;;;;;;;30.17;19.52;;;3.60;86.60;;;;;;5055177;28;20597;-67
2022/03/11 03:50:54;;;;;;;29.10;19.63;;;3.70;86.10;;;;;;5054954;28;20231;-67
2022/03/11 03:53:21;;;;;;;30.63;19.30;;;3.70;85.70;;;;;;5054838;28;20290;-67
2022/03/11 03:55:48;;;;;;;27.88;19.75;;;3.80;85.20;;;;;;5054708;28;20708;-67
2022/03/11 03:58:14;;;;;;;32.40;19.45;;;3.80;84.70;;;;;;5054705;28;20761;-66
2022/03/11 04:00:41;;;;;;;29.40;18.88;;;3.80;85.10;;;;;;5054838;28;20562;-67
2022/03/11 04:03:08;;;;;;;30.10;18.98;;;3.80;84.50;;;;;;5054702;28;20203;-67
2022/03/11 04:05:35;;;;;;;29.90;18.98;;;3.70;84.00;;;;;;5054644;28;20223;-67
2022/03/11 04:08:03;;;;;;;30.35;20.00;;;3.80;84.10;;;;;;5053833;28;20254;-67
2022/03/11 04:10:30;;;;;;;28.65;18.65;;;3.80;83.50;;;;;;5054629;28;20199;-67
2022/03/11 04:12:57;;;;;;;27.67;18.92;;;3.70;83.90;;;;;;5054674;28;20564;-67
2022/03/11 04:15:24;;;;;;;30.38;17.85;;;3.80;83.70;;;;;;5054672;28;20227;-67
2022/03/11 04:17:50;;;;;;;32.20;20.00;;;3.60;83.40;;;;;;5054675;28;20577;-67
2022/03/11 04:20:18;;;;;;;30.80;19.40;;;3.60;84.00;;;;;;5054339;28;20266;-66
2022/03/11 04:22:45;;;;;;;29.80;18.83;;;3.40;83.90;;;;;;5054413;28;20265;-66
2022/03/11 04:25:15;;;;;;;26.25;18.92;;;3.40;84.10;;;;;;5054306;28;20229;-66
2022/03/11 04:27:42;;;;;;;26.00;17.70;;;3.40;84.20;;;;;;5054437;28;20204;-67
2022/03/11 04:30:18;;;;;;;28.73;18.48;;;3.50;83.60;;;;;;5111907;27;20529;-66
2022/03/11 04:32:45;;;;;;;27.33;17.15;;;3.60;83.00;;;;;;5111508;28;20205;-66
2022/03/11 04:35:12;;;;;;;27.38;17.13;;;3.70;82.60;;;;;;5111199;28;20584;-66
2022/03/11 04:37:38;;;;;;;28.20;18.67;;;3.70;82.10;;;;;;5111441;28;20205;-66
2022/03/11 04:40:07;;;;;;;30.70;16.90;;;3.60;81.70;;;;;;5111112;28;20205;-66
2022/03/11 04:42:34;;;;;;;27.85;17.10;;;3.60;80.80;;;;;;5111090;28;20659;-66
2022/03/11 04:45:01;;;;;;;27.55;17.45;;;3.60;81.00;;;;;;5111013;28;20263;-66
2022/03/11 04:47:29;;;;;;;26.00;17.55;;;3.50;80.90;;;;;;5111275;28;20371;-66
2022/03/11 04:49:56;;;;;;;27.15;17.95;;;3.40;80.40;;;;;;5111072;28;20221;-66
2022/03/11 04:52:23;;;;;;;26.33;17.35;;;3.20;80.70;;;;;;5110906;28;20208;-66
2022/03/11 04:54:50;;;;;;;26.83;16.70;;;3.30;81.20;;;;;;5111080;28;20208;-66
2022/03/11 04:57:16;;;;;;;25.40;16.85;;;3.20;80.60;;;;;;5111052;28;20681;-66
2022/03/11 04:59:44;;;;;;;26.48;17.85;;;3.10;81.10;;;;;;5111327;28;20295;-66
2022/03/11 05:02:11;;;;;;;24.75;15.70;;;3.10;80.90;;;;;;5110974;28;20206;-66
2022/03/11 05:04:39;;;;;;;26.30;15.48;;;3.00;80.80;;;;;;5110470;28;20202;-66
2022/03/11 05:07:07;;;;;;;25.92;16.23;;;2.90;81.30;;;;;;5110884;28;20296;-66
2022/03/11 05:09:34;;;;;;;24.30;16.00;;;3.00;81.40;;;;;;5110779;28;20225;-66
2022/03/11 05:12:01;;;;;;;23.90;15.13;;;3.00;81.10;;;;;;5110622;28;20297;-66
2022/03/11 05:14:28;;;;;;;24.08;15.18;;;3.00;80.70;;;;;;5110631;28;20293;-66
2022/03/11 05:16:55;;;;;;;22.63;15.48;;;3.10;80.40;;;;;;5110715;28;20228;-66
2022/03/11 05:19:24;;;;;;;29.20;16.38;;;3.10;81.20;;;;;;5110563;28;20200;-66
2022/03/11 05:21:52;;;;;;;22.55;15.43;;;3.10;79.80;;;;;;5110423;28;20208;-66
2022/03/11 05:24:19;;;;;;;23.60;14.77;;;3.10;79.10;;;;;;5110232;28;20205;-66
2022/03/11 05:26:46;;;;;;;20.58;13.93;;;3.10;77.80;;;;;;5110580;28;20225;-66
2022/03/11 05:29:13;;;;;;;22.02;13.77;;;3.10;77.70;;;;;;5110126;28;20590;-66
2022/03/11 05:31:40;;;;;;;22.40;13.52;;;3.20;77.40;;;;;;5110424;28;20202;-66
2022/03/11 05:34:07;;;;;;;20.20;12.82;;;3.00;77.50;;;;;;5110081;28;20292;-66
2022/03/11 05:36:35;;;;;;;20.23;12.60;;;2.90;76.90;;;;;;5110027;28;20698;-66
2022/03/11 05:39:03;;;;;;;19.15;12.98;;;2.90;77.00;;;;;;5110089;28;20198;-66
2022/03/11 05:41:31;;;;;;;18.38;12.70;;;3.00;76.20;;;;;;5097357;28;20594;-66
2022/03/11 05:43:57;;;;;;;18.92;12.35;;;2.90;75.40;;;;;;5096362;28;20572;-66
2022/03/11 05:46:24;;;;;;;19.77;12.77;;;2.90;75.30;;;;;;5096496;28;20224;-66
2022/03/11 05:48:51;;;;;;;22.23;13.73;;;2.80;75.90;;;;;;5096422;28;20222;-66
2022/03/11 05:51:18;;;;;;;20.30;13.13;;;2.80;75.50;;;;;;5096546;28;20248;-65
2022/03/11 05:53:45;;;;;;;18.58;11.70;;;2.90;75.90;;;;;;5096033;28;20202;-66
2022/03/11 05:56:13;;;;;;;16.08;11.65;;;3.00;74.50;;;;;;5096276;28;20313;-66
2022/03/11 05:58:40;;;;;;;21.33;13.13;;;3.00;74.30;;;;;;5096026;28;20678;-66
2022/03/11 06:01:06;;;;;;;16.48;11.88;;;3.10;74.30;;;;;;5096265;28;20567;-66
2022/03/11 06:03:34;;;;;;;17.48;11.85;;;2.90;73.80;;;;;;5096004;28;20569;-66
2022/03/11 06:06:00;;;;;;;16.02;10.88;;;2.70;73.40;;;;;;5096205;28;20218;-66
2022/03/11 06:08:27;;;;;;;15.90;10.95;;;2.80;73.50;;;;;;5096086;28;20228;-66
2022/03/11 06:10:54;;;;;;;19.15;11.90;;;2.90;73.50;;;;;;5096108;28;20293;-66
2022/03/11 06:13:22;;;;;;;19.20;10.98;;;2.90;72.80;;;;;;5095811;28;20198;-66
2022/03/11 06:15:49;;;;;;;17.75;11.23;;;2.90;73.00;;;;;;5095995;28;20229;-66
2022/03/11 06:18:18;;;;;;;17.45;10.50;;;2.90;72.80;;;;;;5095919;28;20202;-66
2022/03/11 06:20:45;;;;;;;16.00;10.15;;;3.00;72.00;;;;;;5095940;28;20202;-66
2022/03/11 06:23:13;;;;;;;16.80;10.75;;;3.10;71.80;;;;;;5095693;28;20205;-66
2022/03/11 06:25:40;;;;;;;16.55;11.38;;;3.10;71.40;;;;;;5095694;28;20593;-66
2022/03/11 06:28:07;;;;;;;16.73;10.13;;;3.10;70.80;;;;;;5095637;28;20206;-66
2022/03/11 06:30:35;;;;;;;16.98;10.20;;;3.00;70.70;;;;;;5095480;28;20703;-66
2022/03/11 06:33:02;;;;;;;15.80;10.32;;;3.00;70.80;;;;;;5095600;28;20204;-66
2022/03/11 06:35:29;;;;;;;13.35;10.02;;;3.00;70.60;;;;;;5095557;28;20222;-65
2022/03/11 06:37:56;;;;;;;16.35;11.10;;;3.10;71.20;;;;;;5095610;28;20203;-66
2022/03/11 06:40:22;;;;;;;17.50;11.10;;;3.10;71.80;;;;;;5095442;28;20198;-65
2022/03/11 06:42:50;;;;;;;17.17;10.38;;;3.10;71.60;;;;;;5095411;28;20237;-66
2022/03/11 06:45:18;;;;;;;13.93;9.93;;;3.20;70.60;;;;;;5095222;28;20222;-66
2022/03/11 06:47:48;;;;;;;14.07;10.05;;;3.30;70.00;;;;;;5095363;28;20206;-66
2022/03/11 06:50:16;;;;;;;15.02;10.60;;;3.40;70.20;;;;;;5095269;28;20218;-66
2022/03/11 06:52:44;;;;;;;13.95;9.40;;;3.40;69.60;;;;;;5094298;28;20560;-66
2022/03/11 06:55:13;;;;;;;16.15;10.10;;;3.30;68.70;;;;;;5095193;28;20232;-66
2022/03/11 06:57:40;;;;;;;14.45;9.82;;;3.10;69.10;;;;;;5095225;28;20202;-66
2022/03/11 07:00:09;;;;;;;13.57;9.15;;;3.00;70.60;;;;;;5095005;28;20199;-66
2022/03/11 07:02:37;;;;;;;12.45;9.38;;;3.00;70.40;;;;;;5095421;28;20206;-66
2022/03/11 07:05:05;;;;;;;14.15;9.18;;;3.00;69.10;;;;;;5094807;28;20226;-66
2022/03/11 07:07:33;;;;;;;17.73;9.70;;;3.10;69.20;;;;;;5094761;28;20693;-66
2022/03/11 07:10:01;;;;;;;12.68;8.88;;;3.20;69.10;;;;;;5094548;28;20316;-66
2022/03/11 07:12:28;;;;;;;13.63;9.10;;;3.10;67.80;;;;;;5094754;28;20256;-65
2022/03/11 07:14:55;;;;;;;13.02;9.30;;;3.10;69.00;;;;;;5094592;28;20292;-66
2022/03/11 07:17:22;;;;;;;13.68;9.20;;;3.20;69.20;;;;;;5094908;28;20630;-66
2022/03/11 07:19:48;;;;;;;16.95;8.50;;;3.20;69.40;;;;;;5094708;28;20214;-66
2022/03/11 07:22:17;;;;;;;15.75;9.68;;;3.30;68.60;;;;;;5094689;28;20252;-66
2022/03/11 07:24:44;;;;;;;12.63;9.27;;;3.30;67.70;;;;;;5094456;28;20198;-66
2022/03/11 07:27:11;;;;;;;13.60;9.30;;;3.20;66.50;;;;;;5094664;28;20209;-66
2022/03/11 07:29:38;;;;;;;15.68;8.65;;;3.30;67.90;;;;;;5094296;28;20222;-66
2022/03/11 07:32:08;;;;;;;13.45;8.25;;;3.40;66.00;;;;;;5094692;28;20209;-66
2022/03/11 07:34:34;;;;;;;12.30;8.32;;;3.50;65.60;;;;;;5094138;28;20206;-66
2022/03/11 07:37:02;;;;;;;14.27;8.80;;;3.70;65.40;;;;;;5094348;28;20228;-66
2022/03/11 07:39:30;;;;;;;13.18;9.15;;;3.80;65.50;;;;;;5094386;28;20208;-66
2022/03/11 07:41:57;;;;;;;13.38;9.48;;;3.90;64.10;;;;;;5094363;28;20204;-66
2022/03/11 07:44:24;;;;;;;13.63;9.05;;;3.90;63.40;;;;;;5094037;28;20228;-66
2022/03/11 07:46:51;;;;;;;12.57;8.82;;;4.00;63.50;;;;;;5094337;28;20230;-66
2022/03/11 07:49:18;;;;;;;14.05;9.18;;;4.00;67.50;;;;;;5094026;28;20253;-66
2022/03/11 07:51:45;;;;;;;12.63;8.63;;;4.10;65.40;;;;;;5093983;28;20248;-66
2022/03/11 07:54:12;;;;;;;13.50;9.43;;;4.10;64.10;;;;;;5093831;28;20655;-66
2022/03/11 07:56:41;;;;;;;12.55;8.63;;;4.00;64.90;;;;;;5094128;28;20225;-66
2022/03/11 07:59:08;;;;;;;10.82;8.45;;;4.10;64.20;;;;;;5094080;28;20201;-66
2022/03/11 08:01:35;;;;;;;13.40;8.95;;;4.10;64.00;;;;;;5094043;28;20537;-66
2022/03/11 08:04:02;;;;;;;14.75;9.20;;;4.20;63.30;;;;;;5093395;28;20202;-67
2022/03/11 08:06:28;;;;;;;16.42;10.50;;;4.30;62.70;;;;;;5094041;28;20648;-66
2022/03/11 08:08:56;;;;;;;15.55;10.45;;;4.30;62.00;;;;;;5094024;28;20293;-67
2022/03/11 08:11:23;;;;;;;17.52;10.77;;;4.40;63.10;;;;;;5094064;28;20205;-67
2022/03/11 08:13:51;;;;;;;20.85;9.50;;;4.50;63.50;;;;;;5093658;28;20205;-67
2022/03/11 08:16:18;;;;;;;23.17;11.18;;;4.50;62.90;;;;;;5093780;28;20313;-66
2022/03/11 08:18:45;;;;;;;18.80;10.85;;;4.50;62.30;;;;;;5093550;28;20202;-67
2022/03/11 08:21:16;;;;;;;12.63;9.75;;;4.50;63.30;;;;;;5093573;28;20663;-67
2022/03/11 08:23:43;;;;;;;14.07;10.50;;;4.60;64.10;;;;;;5093454;28;20201;-67
2022/03/11 08:26:10;;;;;;;14.25;9.82;;;4.70;61.90;;;;;;5093666;28;20218;-67
2022/03/11 08:28:37;;;;;;;12.20;8.88;;;4.70;63.60;;;;;;5093585;28;20247;-66
2022/03/11 08:31:05;;;;;;;14.30;9.88;;;4.70;62.00;;;;;;5093554;28;20222;-67
2022/03/11 08:33:35;;;;;;;13.18;9.73;;;4.70;63.70;;;;;;5093523;28;20293;-66
2022/03/11 08:36:02;;;;;;;15.90;10.50;;;4.90;62.40;;;;;;5093896;28;20222;-67
2022/03/11 08:38:29;;;;;;;18.67;9.75;;;5.00;63.60;;;;;;5092154;28;20292;-66
2022/03/11 08:40:56;;;;;;;17.50;9.52;;;5.10;63.00;;;;;;5070205;28;20202;-67
2022/03/11 08:43:23;;;;;;;14.82;9.15;;;5.30;63.20;;;;;;5071914;28;20213;-67
2022/03/11 08:45:50;;;;;;;14.10;10.43;;;5.60;61.40;;;;;;5072100;28;20233;-67
2022/03/11 08:48:18;;;;;;;13.07;9.93;;;5.80;60.30;;;;;;5072530;28;20202;-67
2022/03/11 08:50:45;;;;;;;18.00;10.57;;;6.00;60.60;;;;;;5072205;28;20248;-67
2022/03/11 08:53:12;;;;;;;15.38;10.50;;;5.90;60.00;;;;;;5071574;28;20298;-67
2022/03/11 08:55:39;;;;;;;15.32;9.95;;;6.00;59.40;;;;;;5071901;28;20311;-68
2022/03/11 08:58:06;;;;;;;13.60;10.25;;;6.00;58.80;;;;;;5072183;28;20207;-67
2022/03/11 09:00:33;;;;;;;18.35;10.52;;;6.10;59.50;;;;;;5071844;28;20706;-67
2022/03/11 09:02:59;;;;;;;13.20;10.25;;;6.30;59.00;;;;;;5071614;28;20203;-68
2022/03/11 09:05:28;;;;;;;14.48;10.10;;;6.70;58.60;;;;;;5071883;28;20226;-67
2022/03/11 09:07:56;;;;;;;15.93;11.20;;;6.80;58.90;;;;;;5072183;28;20213;-67
2022/03/11 09:10:23;;;;;;;16.60;10.90;;;6.80;58.30;;;;;;5071869;28;20219;-67
2022/03/11 09:12:50;;;;;;;14.93;10.65;;;6.90;58.70;;;;;;5071490;28;20202;-67
2022/03/11 09:15:17;;;;;;;14.25;9.75;;;7.20;56.50;;;;;;5072119;28;20755;-67
2022/03/11 09:17:45;;;;;;;15.48;11.32;;;7.50;55.70;;;;;;5076024;28;20203;-68
2022/03/11 09:20:13;;;;;;;15.27;10.77;;;7.50;54.80;;;;;;5075493;28;20206;-68
2022/03/11 09:22:42;;;;;;;13.80;10.20;;;7.40;54.90;;;;;;5075153;28;20656;-67
2022/03/11 09:25:10;;;;;;;17.02;10.75;;;7.30;54.80;;;;;;5074966;28;20233;-68
2022/03/11 09:27:37;;;;;;;15.75;10.50;;;7.30;55.30;;;;;;5075737;28;20207;-67
2022/03/11 09:30:06;;;;;;;13.32;9.57;;;7.40;56.00;;;;;;5075051;28;20310;-68
2022/03/11 09:32:33;;;;;;;12.77;10.60;;;7.50;56.10;;;;;;5075403;28;20203;-67
2022/03/11 09:35:00;;;;;;;15.35;11.23;;;7.60;56.20;;;;;;5074886;28;20318;-68
2022/03/11 09:37:27;;;;;;;16.38;10.63;;;7.70;55.80;;;;;;5075152;28;20207;-67
2022/03/11 09:39:56;;;;;;;15.43;10.52;;;7.60;56.00;;;;;;5075098;28;20483;-68
2022/03/11 09:42:23;;;;;;;14.63;10.77;;;7.60;56.80;;;;;;5075070;28;20242;-68
2022/03/11 09:44:52;;;;;;;15.15;10.73;;;7.70;57.00;;;;;;5074820;28;20206;-67
2022/03/11 09:47:19;;;;;;;15.02;10.82;;;7.90;57.20;;;;;;5074950;28;20210;-67
2022/03/11 09:49:46;;;;;;;16.05;10.65;;;8.00;56.50;;;;;;5074999;28;20285;-67
2022/03/11 09:52:14;;;;;;;16.52;11.30;;;8.10;55.50;;;;;;5074764;28;20221;-68
2022/03/11 09:54:41;;;;;;;15.95;11.50;;;8.10;55.50;;;;;;5075035;28;20575;-68
2022/03/11 09:57:09;;;;;;;16.25;10.90;;;8.10;55.30;;;;;;5075021;28;20207;-67
2022/03/11 09:59:36;;;;;;;15.93;10.90;;;8.20;55.00;;;;;;5075148;28;20206;-67
2022/03/11 10:02:04;;;;;;;16.15;12.02;;;8.30;55.20;;;;;;5074783;28;20199;-67
2022/03/11 10:04:31;;;;;;;13.88;11.30;;;8.30;54.60;;;;;;5074676;28;20198;-67
2022/03/11 10:06:58;;;;;;;14.50;10.68;;;8.50;54.90;;;;;;5074828;28;20223;-66
2022/03/11 10:09:33;;;;;;;14.15;10.95;;;8.50;54.70;;;;;;5075707;28;20205;-67
2022/03/11 10:12:05;;;;;;;15.73;11.52;;;8.90;55.40;;;;;;5075874;28;20606;-66
2022/03/11 10:14:35;;;;;;;17.42;11.82;;;9.40;55.30;;;;;;5075526;28;20213;-69
2022/03/11 10:17:04;;;;;;;17.08;11.73;;;10.10;52.80;;;;;;5075470;28;20218;-66
2022/03/11 10:19:31;;;;;;;15.95;12.55;;;10.80;52.00;;;;;;5075426;28;20213;-66
2022/03/11 10:22:00;;;;;;;18.85;11.90;;;11.60;49.40;;;;;;5075680;28;20202;-66
2022/03/11 10:24:27;;;;;;;20.05;11.75;;;12.20;48.60;;;;;;5075376;28;20203;-66
2022/03/11 10:26:57;;;;;;;17.25;12.25;;;13.20;48.80;;;;;;5075460;28;20236;-66
2022/03/11 10:29:27;;;;;;;15.15;12.35;;;14.10;45.00;;;;;;5075463;28;20223;-67
2022/03/11 10:31:58;;;;;;;14.00;11.82;;;14.70;42.90;;;;;;5075275;28;20222;-67
2022/03/11 10:34:26;;;;;;;13.32;11.20;;;15.40;42.40;;;;;;5075286;28;20207;-67
2022/03/11 10:36:55;;;;;;;14.20;12.43;;;16.30;42.20;;;;;;5075365;28;20263;-66
2022/03/11 10:39:29;;;;;;;15.13;12.48;;;16.10;39.60;;;;;;5075314;28;20217;-66
2022/03/11 10:41:56;;;;;;;17.50;12.23;;;15.80;39.90;;;;;;5075309;28;20205;-67
2022/03/11 10:44:26;;;;;;;15.30;12.90;;;15.80;38.70;;;;;;5074837;28;20235;-67
2022/03/11 10:46:55;;;;;;;14.48;12.10;;;15.80;39.20;;;;;;5074818;28;20226;-67
2022/03/11 10:49:32;;;;;;;16.85;12.70;;;16.20;39.20;;;;;;5075127;28;20305;-67
2022/03/11 10:51:59;;;;;;;13.32;11.93;;;16.70;39.50;;;;;;5075066;28;20608;-67
2022/03/11 10:54:27;;;;;;;13.90;12.35;;;17.20;38.50;;;;;;5074718;28;20209;-67
2022/03/11 10:56:55;;;;;;;14.75;12.80;;;17.20;38.20;;;;;;5074855;28;20313;-67
2022/03/11 10:59:27;;;;;;;14.82;13.23;;;16.80;38.20;;;;;;5074949;28;20205;-67
2022/03/11 11:01:57;;;;;;;13.85;11.68;;;15.80;37.20;;;;;;5074895;28;20620;-67
2022/03/11 11:04:24;;;;;;;13.77;12.10;;;15.60;38.00;;;;;;5074679;28;20617;-67
2022/03/11 11:06:52;;;;;;;15.82;12.25;;;16.10;38.30;;;;;;5074804;28;20623;-67
2022/03/11 11:09:22;;;;;;;15.35;12.52;;;15.90;38.40;;;;;;5074667;28;20202;-67
2022/03/11 11:11:49;;;;;;;18.20;12.60;;;16.70;37.70;;;;;;5074610;28;20226;-67
2022/03/11 11:14:16;;;;;;;14.32;12.68;;;16.70;37.30;;;;;;5074312;28;20209;-67
2022/03/11 11:16:44;;;;;;;13.60;12.10;;;17.50;36.70;;;;;;5074584;28;20609;-67
2022/03/11 11:19:14;;;;;;;15.30;12.77;;;17.90;36.10;;;;;;5074546;28;20199;-67
2022/03/11 11:21:43;;;;;;;14.43;12.63;;;18.30;35.40;;;;;;5074460;28;20915;-67
2022/03/11 11:24:13;;;;;;;15.13;13.52;;;18.10;34.60;;;;;;5074152;28;20502;-67
2022/03/11 11:26:41;;;;;;;19.98;12.40;;;17.30;35.20;;;;;;5074387;28;20234;-67
2022/03/11 11:29:09;;;;;;;14.45;12.85;;;17.40;36.40;;;;;;5074111;28;20676;-67
2022/03/11 11:31:37;;;;;;;15.50;11.93;;;17.90;35.80;;;;;;5074231;28;20558;-67
2022/03/11 11:34:04;;;;;;;16.70;13.65;;;18.30;35.20;;;;;;5074118;28;20452;-67
2022/03/11 11:36:37;;;;;;;15.25;12.55;;;17.80;34.30;;;;;;5073910;28;20226;-67
2022/03/11 11:39:07;;;;;;;14.27;12.68;;;17.80;35.60;;;;;;5073735;28;20203;-67
2022/03/11 11:41:35;;;;;;;15.40;13.20;;;17.80;35.90;;;;;;5074282;28;20206;-67
2022/03/11 11:44:04;;;;;;;16.95;12.82;;;17.60;35.00;;;;;;5073786;28;20301;-67
2022/03/11 11:46:33;;;;;;;15.90;13.75;;;17.20;35.70;;;;;;5074010;28;20649;-67
2022/03/11 11:49:06;;;;;;;16.75;14.13;;;17.30;35.60;;;;;;5073919;28;20207;-67
2022/03/11 11:51:56;;;;;;;17.85;13.35;;;16.40;36.50;;;;;;5073918;28;20236;-66
2022/03/11 11:54:44;;;;;;;14.93;13.30;;;15.20;37.50;;;;;;5062891;28;20207;-66
2022/03/11 11:57:24;;;;;;;19.42;13.27;;;14.10;39.20;;;;;;5073910;28;20293;-66
2022/03/11 11:59:51;;;;;;;15.32;12.82;;;13.50;40.60;;;;;;5073686;28;20206;-67
2022/03/11 12:02:35;;;;;;;16.40;12.95;;;13.30;41.00;;;;;;5073664;28;20237;-66
2022/03/11 12:05:22;;;;;;;16.60;12.63;;;13.40;42.30;;;;;;5073492;28;20227;-67
2022/03/11 12:07:50;;;;;;;16.70;12.50;;;14.30;41.50;;;;;;5073432;28;20205;-67
2022/03/11 12:10:25;;;;;;;19.48;13.45;;;15.50;39.80;;;;;;5073685;28;20297;-67
2022/03/11 12:13:01;;;;;;;14.93;13.25;;;16.40;39.40;;;;;;5073549;28;20659;-67
2022/03/11 12:15:33;;;;;;;14.48;12.70;;;16.50;37.80;;;;;;5073485;28;20313;-67
2022/03/11 12:18:00;;;;;;;13.75;12.35;;;16.90;37.90;;;;;;5070169;28;20653;-67
2022/03/11 12:20:34;;;;;;;15.27;13.17;;;17.90;37.10;;;;;;5072454;28;20213;-67
2022/03/11 12:23:04;;;;;;;15.80;13.50;;;18.40;36.50;;;;;;5072360;28;20784;-67
2022/03/11 12:25:33;;;;;;;16.50;14.43;;;17.60;36.40;;;;;;5071943;28;20728;-67
2022/03/11 12:28:11;;;;;;;15.53;14.03;;;18.00;37.20;;;;;;5072051;28;20209;-66
2022/03/11 12:30:43;;;;;;;14.73;13.27;;;18.20;36.70;;;;;;5071857;28;20810;-67
2022/03/11 12:33:12;;;;;;;15.35;13.85;;;17.70;35.70;;;;;;5071982;28;20534;-67
2022/03/11 12:35:40;;;;;;;15.77;14.07;;;17.20;36.00;;;;;;5072202;28;20250;-66
2022/03/11 12:38:12;;;;;;;19.65;14.32;;;16.50;37.30;;;;;;5072078;28;20209;-66